• pl
  • eng

Awiacja
Kliknij na pogrubioną czerwoną nazwę, aby odkodować depeszę. 04:01 19.06.2018
  • WIND
  • SIGNIFICANT EURO
  • SIGNIFICANT
  • SIGMET
  • AIRMET
  • TAF FC
  • TAF FT
  • METAR GG30
  • METAR GG00


METAR EPBY 190200Z VRB01KT CAVOK 15/11 Q1018 =

METAR EPGD 190200Z VRB02KT CAVOK 15/12 Q1017 =

METAR EPKK 190200Z 23004KT 9999 SCT051 17/14 Q1019 =

METAR EPKT 190200Z 27003KT CAVOK 16/12 Q1020 =

METAR EPLB 190200Z 29004KT CAVOK 18/17 Q1017 =

METAR EPLL 190200Z 03001KT CAVOK 13/11 Q1019 =

METAR EPMO 190200Z VRB02KT CAVOK 15/13 Q1018 =

METAR EPPO 190200Z 21004KT CAVOK 17/12 Q1019 =

METAR EPRA 190200Z NIL=

METAR EPRZ 190200Z 22004KT 6000 NSC 17/16 Q1018 =

METAR EPSC 190200Z 22003KT 170V260 9999 FEW040 18/13 Q1017 =

METAR EPSY 190200Z 18002KT 5000 MIFG NSC 11/10 Q1018=

METAR EPWA 190200Z 33002KT CAVOK 17/15 Q1018 NOSIG=

METAR EPWR 190200Z 23001KT CAVOK 15/11 Q1020 =

METAR EPZG 190200Z 19002KT CAVOK 17/12 Q1019 =
 METAR EPMO
Lokalizacja:EPMO Modlin
Czas:02:00 UTC
Średni kierunek wiatru:zmienny
Średnia prędkość wiatru:2 węzłów
CAVOK:Widzialność 10 km i więcej, zjawisko: NIL, zachmurzenie: NSC
Temperatura powietrza:15 °C
Temperatura punktu rosy:13 °C
Ciśnienie QNH:1018 hPa
Awiacja.imgw.pl jest pogodowym serwisem informacyjnym
Instytutu Meteorologii i Gospodarki Wodnej Państwowego Instytutu Badawczego.
Copyright IMGW PIB 2009-2011© Wszelkie prawa zastrzeżone.